Terminal Aerodrome Forecast
Issued by NWS

Home | Current Version | Previous Version | Text Only | Print | Product List | Glossary On
Versions: 1 2 3 4 5 6 7 8 9 10 11 12
776
FTUS42 TJSJ 021721
TAFNCM
TAF
TNCM 021721Z 0218/0318 11008KT P6SM FEW016 FEW019
     FM022300 11007KT P6SM SCT018 SCT020
     FM031300 12009KT P6SM VCSH SCT022 SCT050=

USA.gov is the U.S. government's official web portal to all federal, state and local government web resources and services.